sensor_id;sensor_type;location;lat;lon;timestamp;P1;durP1;ratioP1;P2;durP2;ratioP2
50363;SDS011;36272;59.400;17.982;2024-01-16T00:03:41;1.38;;;0.90;;
50363;SDS011;36272;59.400;17.982;2024-01-16T00:08:43;5.05;;;1.00;;
50363;SDS011;36272;59.400;17.982;2024-01-16T00:13:44;2.67;;;0.70;;
50363;SDS011;36272;59.400;17.982;2024-01-16T00:18:46;2.40;;;0.68;;
50363;SDS011;36272;59.400;17.982;2024-01-16T00:23:47;0.73;;;0.47;;
50363;SDS011;36272;59.400;17.982;2024-01-16T00:28:49;8.70;;;0.80;;
50363;SDS011;36272;59.400;17.982;2024-01-16T00:33:56;2.53;;;0.55;;
50363;SDS011;36272;59.400;17.982;2024-01-16T00:38:57;5.47;;;0.60;;
50363;SDS011;36272;59.400;17.982;2024-01-16T00:43:59;1.73;;;1.08;;
50363;SDS011;36272;59.400;17.982;2024-01-16T00:49:00;0.70;;;0.40;;
50363;SDS011;36272;59.400;17.982;2024-01-16T00:54:02;1.02;;;0.80;;
50363;SDS011;36272;59.400;17.982;2024-01-16T00:59:04;1.27;;;0.63;;
50363;SDS011;36272;59.400;17.982;2024-01-16T01:04:06;0.75;;;0.60;;
50363;SDS011;36272;59.400;17.982;2024-01-16T01:09:07;0.85;;;0.60;;
50363;SDS011;36272;59.400;17.982;2024-01-16T01:14:09;2.35;;;0.73;;
50363;SDS011;36272;59.400;17.982;2024-01-16T01:19:10;0.75;;;0.30;;
50363;SDS011;36272;59.400;17.982;2024-01-16T01:24:13;2.03;;;0.40;;
50363;SDS011;36272;59.400;17.982;2024-01-16T01:29:15;2.05;;;0.68;;
50363;SDS011;36272;59.400;17.982;2024-01-16T01:34:17;0.55;;;0.25;;
50363;SDS011;36272;59.400;17.982;2024-01-16T01:39:19;0.95;;;0.47;;
50363;SDS011;36272;59.400;17.982;2024-01-16T01:44:20;0.25;;;0.13;;
50363;SDS011;36272;59.400;17.982;2024-01-16T01:49:22;0.28;;;0.13;;
50363;SDS011;36272;59.400;17.982;2024-01-16T01:54:24;3.65;;;0.30;;
50363;SDS011;36272;59.400;17.982;2024-01-16T01:59:27;0.20;;;0.20;;
50363;SDS011;36272;59.400;17.982;2024-01-16T02:04:30;0.20;;;0.20;;
50363;SDS011;36272;59.400;17.982;2024-01-16T02:09:33;3.05;;;0.68;;
50363;SDS011;36272;59.400;17.982;2024-01-16T02:14:35;0.30;;;0.30;;
50363;SDS011;36272;59.400;17.982;2024-01-16T02:19:37;2.10;;;0.47;;
50363;SDS011;36272;59.400;17.982;2024-01-16T02:24:39;1.58;;;0.60;;
50363;SDS011;36272;59.400;17.982;2024-01-16T02:29:44;0.10;;;0.10;;
50363;SDS011;36272;59.400;17.982;2024-01-16T02:39:47;6.35;;;0.47;;
50363;SDS011;36272;59.400;17.982;2024-01-16T02:44:48;0.40;;;0.10;;
50363;SDS011;36272;59.400;17.982;2024-01-16T02:49:50;0.30;;;0.20;;
50363;SDS011;36272;59.400;17.982;2024-01-16T02:54:52;0.20;;;0.20;;
50363;SDS011;36272;59.400;17.982;2024-01-16T02:59:53;0.93;;;0.20;;
50363;SDS011;36272;59.400;17.982;2024-01-16T03:04:55;0.75;;;0.10;;
50363;SDS011;36272;59.400;17.982;2024-01-16T03:09:56;0.52;;;0.30;;
50363;SDS011;36272;59.400;17.982;2024-01-16T03:14:58;0.38;;;0.20;;
50363;SDS011;36272;59.400;17.982;2024-01-16T03:20:00;1.08;;;0.30;;
50363;SDS011;36272;59.400;17.982;2024-01-16T03:25:01;1.48;;;0.30;;
50363;SDS011;36272;59.400;17.982;2024-01-16T03:30:03;0.50;;;0.32;;
50363;SDS011;36272;59.400;17.982;2024-01-16T03:35:06;0.65;;;0.32;;
50363;SDS011;36272;59.400;17.982;2024-01-16T03:40:08;4.47;;;0.32;;
50363;SDS011;36272;59.400;17.982;2024-01-16T03:45:10;0.20;;;0.20;;
50363;SDS011;36272;59.400;17.982;2024-01-16T03:50:12;2.42;;;0.40;;
50363;SDS011;36272;59.400;17.982;2024-01-16T03:55:13;0.35;;;0.22;;
50363;SDS011;36272;59.400;17.982;2024-01-16T04:00:15;1.45;;;0.30;;
50363;SDS011;36272;59.400;17.982;2024-01-16T04:05:17;0.50;;;0.30;;
50363;SDS011;36272;59.400;17.982;2024-01-16T04:10:19;2.72;;;0.20;;
50363;SDS011;36272;59.400;17.982;2024-01-16T04:15:20;1.40;;;0.40;;
50363;SDS011;36272;59.400;17.982;2024-01-16T04:20:22;0.45;;;0.10;;
50363;SDS011;36272;59.400;17.982;2024-01-16T04:25:24;2.45;;;0.32;;
50363;SDS011;36272;59.400;17.982;2024-01-16T04:30:25;0.20;;;0.20;;
50363;SDS011;36272;59.400;17.982;2024-01-16T04:35:27;1.55;;;0.32;;
50363;SDS011;36272;59.400;17.982;2024-01-16T04:40:28;2.10;;;0.20;;
50363;SDS011;36272;59.400;17.982;2024-01-16T04:45:30;0.20;;;0.20;;
50363;SDS011;36272;59.400;17.982;2024-01-16T04:50:32;0.50;;;0.30;;
50363;SDS011;36272;59.400;17.982;2024-01-16T04:55:33;0.28;;;0.17;;
50363;SDS011;36272;59.400;17.982;2024-01-16T05:00:35;2.92;;;0.20;;
50363;SDS011;36272;59.400;17.982;2024-01-16T05:05:36;1.50;;;0.60;;
50363;SDS011;36272;59.400;17.982;2024-01-16T05:10:38;0.40;;;0.30;;
50363;SDS011;36272;59.400;17.982;2024-01-16T05:15:45;1.63;;;0.22;;
50363;SDS011;36272;59.400;17.982;2024-01-16T05:20:46;0.20;;;0.20;;
50363;SDS011;36272;59.400;17.982;2024-01-16T05:25:48;2.20;;;0.32;;
50363;SDS011;36272;59.400;17.982;2024-01-16T05:30:50;0.22;;;0.22;;
50363;SDS011;36272;59.400;17.982;2024-01-16T05:35:52;0.43;;;0.32;;
50363;SDS011;36272;59.400;17.982;2024-01-16T05:40:53;2.58;;;0.40;;
50363;SDS011;36272;59.400;17.982;2024-01-16T05:45:55;0.40;;;0.30;;
50363;SDS011;36272;59.400;17.982;2024-01-16T05:50:56;1.55;;;0.57;;
50363;SDS011;36272;59.400;17.982;2024-01-16T05:55:58;0.40;;;0.40;;
50363;SDS011;36272;59.400;17.982;2024-01-16T06:01:00;0.70;;;0.32;;
50363;SDS011;36272;59.400;17.982;2024-01-16T06:06:01;0.88;;;0.30;;
50363;SDS011;36272;59.400;17.982;2024-01-16T06:11:03;1.02;;;0.45;;
50363;SDS011;36272;59.400;17.982;2024-01-16T06:16:08;1.08;;;0.50;;
50363;SDS011;36272;59.400;17.982;2024-01-16T06:21:12;4.93;;;0.50;;
50363;SDS011;36272;59.400;17.982;2024-01-16T06:26:14;0.90;;;0.38;;
50363;SDS011;36272;59.400;17.982;2024-01-16T06:31:17;1.55;;;0.52;;
50363;SDS011;36272;59.400;17.982;2024-01-16T06:36:19;0.38;;;0.32;;
50363;SDS011;36272;59.400;17.982;2024-01-16T06:41:20;1.42;;;0.32;;
50363;SDS011;36272;59.400;17.982;2024-01-16T06:46:22;1.20;;;0.50;;
50363;SDS011;36272;59.400;17.982;2024-01-16T06:51:26;2.15;;;0.40;;
50363;SDS011;36272;59.400;17.982;2024-01-16T06:56:29;0.10;;;0.10;;
50363;SDS011;36272;59.400;17.982;2024-01-16T07:01:30;1.88;;;0.88;;
50363;SDS011;36272;59.400;17.982;2024-01-16T07:06:37;0.73;;;0.40;;
50363;SDS011;36272;59.400;17.982;2024-01-16T07:11:39;4.22;;;1.00;;
50363;SDS011;36272;59.400;17.982;2024-01-16T07:16:44;0.82;;;0.40;;
50363;SDS011;36272;59.400;17.982;2024-01-16T07:21:46;0.80;;;0.40;;
50363;SDS011;36272;59.400;17.982;2024-01-16T07:26:53;4.97;;;0.75;;
50363;SDS011;36272;59.400;17.982;2024-01-16T07:31:55;0.65;;;0.50;;
50363;SDS011;36272;59.400;17.982;2024-01-16T07:36:57;2.15;;;0.68;;
50363;SDS011;36272;59.400;17.982;2024-01-16T07:42:01;1.70;;;0.95;;
50363;SDS011;36272;59.400;17.982;2024-01-16T07:47:03;3.63;;;1.38;;
50363;SDS011;36272;59.400;17.982;2024-01-16T07:52:04;4.15;;;1.48;;
50363;SDS011;36272;59.400;17.982;2024-01-16T07:57:06;3.10;;;1.30;;
50363;SDS011;36272;59.400;17.982;2024-01-16T08:02:08;4.03;;;1.02;;
50363;SDS011;36272;59.400;17.982;2024-01-16T08:07:10;7.53;;;2.15;;
50363;SDS011;36272;59.400;17.982;2024-01-16T08:12:11;7.50;;;1.80;;
50363;SDS011;36272;59.400;17.982;2024-01-16T08:17:13;4.38;;;1.35;;
50363;SDS011;36272;59.400;17.982;2024-01-16T08:22:15;7.13;;;1.45;;
50363;SDS011;36272;59.400;17.982;2024-01-16T08:27:17;2.38;;;0.77;;
50363;SDS011;36272;59.400;17.982;2024-01-16T08:32:20;3.10;;;1.02;;
50363;SDS011;36272;59.400;17.982;2024-01-16T08:37:22;0.60;;;0.35;;
50363;SDS011;36272;59.400;17.982;2024-01-16T08:42:23;3.53;;;0.82;;
50363;SDS011;36272;59.400;17.982;2024-01-16T08:47:28;2.35;;;0.98;;
50363;SDS011;36272;59.400;17.982;2024-01-16T08:52:29;1.73;;;0.98;;
50363;SDS011;36272;59.400;17.982;2024-01-16T08:57:31;1.23;;;0.55;;
50363;SDS011;36272;59.400;17.982;2024-01-16T09:02:33;1.73;;;0.70;;
50363;SDS011;36272;59.400;17.982;2024-01-16T09:07:35;1.17;;;0.50;;
50363;SDS011;36272;59.400;17.982;2024-01-16T09:12:36;3.50;;;0.90;;
50363;SDS011;36272;59.400;17.982;2024-01-16T09:17:38;0.95;;;0.73;;
50363;SDS011;36272;59.400;17.982;2024-01-16T09:22:40;4.60;;;1.23;;
50363;SDS011;36272;59.400;17.982;2024-01-16T09:27:41;0.77;;;0.52;;
50363;SDS011;36272;59.400;17.982;2024-01-16T09:32:43;6.13;;;1.52;;
50363;SDS011;36272;59.400;17.982;2024-01-16T09:37:45;4.35;;;1.02;;
50363;SDS011;36272;59.400;17.982;2024-01-16T09:42:46;1.17;;;0.57;;
50363;SDS011;36272;59.400;17.982;2024-01-16T09:47:49;1.23;;;0.65;;
50363;SDS011;36272;59.400;17.982;2024-01-16T09:52:52;2.97;;;0.65;;
50363;SDS011;36272;59.400;17.982;2024-01-16T09:57:54;1.17;;;0.68;;
50363;SDS011;36272;59.400;17.982;2024-01-16T10:02:56;3.03;;;0.98;;
50363;SDS011;36272;59.400;17.982;2024-01-16T10:07:59;0.73;;;0.53;;
50363;SDS011;36272;59.400;17.982;2024-01-16T10:13:01;2.38;;;0.90;;
50363;SDS011;36272;59.400;17.982;2024-01-16T10:18:04;1.35;;;0.85;;
50363;SDS011;36272;59.400;17.982;2024-01-16T10:23:06;4.75;;;1.02;;
50363;SDS011;36272;59.400;17.982;2024-01-16T10:28:07;3.00;;;0.80;;
50363;SDS011;36272;59.400;17.982;2024-01-16T10:33:13;1.90;;;0.82;;
50363;SDS011;36272;59.400;17.982;2024-01-16T10:38:21;5.65;;;1.00;;
50363;SDS011;36272;59.400;17.982;2024-01-16T10:43:26;4.53;;;1.00;;
50363;SDS011;36272;59.400;17.982;2024-01-16T10:48:28;0.93;;;0.75;;
50363;SDS011;36272;59.400;17.982;2024-01-16T10:53:31;2.90;;;1.25;;
50363;SDS011;36272;59.400;17.982;2024-01-16T10:58:34;8.02;;;3.33;;
50363;SDS011;36272;59.400;17.982;2024-01-16T11:08:47;6.40;;;1.08;;
50363;SDS011;36272;59.400;17.982;2024-01-16T11:13:54;3.90;;;0.52;;
50363;SDS011;36272;59.400;17.982;2024-01-16T11:18:57;2.33;;;0.93;;
50363;SDS011;36272;59.400;17.982;2024-01-16T11:23:59;1.67;;;1.02;;
50363;SDS011;36272;59.400;17.982;2024-01-16T11:29:11;6.25;;;0.77;;
50363;SDS011;36272;59.400;17.982;2024-01-16T11:39:42;1.48;;;0.55;;
50363;SDS011;36272;59.400;17.982;2024-01-16T11:44:45;1.27;;;0.68;;
50363;SDS011;36272;59.400;17.982;2024-01-16T11:50:11;1.58;;;0.77;;
50363;SDS011;36272;59.400;17.982;2024-01-16T11:55:28;2.83;;;1.10;;
50363;SDS011;36272;59.400;17.982;2024-01-16T12:00:33;1.23;;;0.38;;
50363;SDS011;36272;59.400;17.982;2024-01-16T12:05:37;3.67;;;1.08;;
50363;SDS011;36272;59.400;17.982;2024-01-16T12:10:48;4.35;;;1.00;;
50363;SDS011;36272;59.400;17.982;2024-01-16T12:15:58;0.50;;;0.45;;
50363;SDS011;36272;59.400;17.982;2024-01-16T12:21:07;2.15;;;0.85;;
50363;SDS011;36272;59.400;17.982;2024-01-16T12:26:19;1.75;;;0.80;;
50363;SDS011;36272;59.400;17.982;2024-01-16T12:31:21;1.85;;;0.55;;
50363;SDS011;36272;59.400;17.982;2024-01-16T12:36:23;1.52;;;0.77;;
50363;SDS011;36272;59.400;17.982;2024-01-16T12:41:24;4.63;;;1.00;;
50363;SDS011;36272;59.400;17.982;2024-01-16T12:46:29;3.60;;;1.17;;
50363;SDS011;36272;59.400;17.982;2024-01-16T12:51:31;2.58;;;1.23;;
50363;SDS011;36272;59.400;17.982;2024-01-16T12:56:32;7.82;;;0.77;;
50363;SDS011;36272;59.400;17.982;2024-01-16T13:01:34;2.10;;;1.00;;
50363;SDS011;36272;59.400;17.982;2024-01-16T13:06:36;2.17;;;1.02;;
50363;SDS011;36272;59.400;17.982;2024-01-16T13:11:54;3.90;;;1.33;;
50363;SDS011;36272;59.400;17.982;2024-01-16T13:16:56;3.30;;;1.48;;
50363;SDS011;36272;59.400;17.982;2024-01-16T13:21:58;6.82;;;0.90;;
50363;SDS011;36272;59.400;17.982;2024-01-16T13:27:00;6.70;;;1.27;;
50363;SDS011;36272;59.400;17.982;2024-01-16T13:32:01;10.95;;;4.10;;
50363;SDS011;36272;59.400;17.982;2024-01-16T13:37:03;8.18;;;1.13;;
50363;SDS011;36272;59.400;17.982;2024-01-16T13:42:06;4.88;;;1.45;;
50363;SDS011;36272;59.400;17.982;2024-01-16T13:47:08;1.50;;;0.90;;
50363;SDS011;36272;59.400;17.982;2024-01-16T13:52:09;6.30;;;1.13;;
50363;SDS011;36272;59.400;17.982;2024-01-16T13:57:16;10.00;;;1.35;;
50363;SDS011;36272;59.400;17.982;2024-01-16T14:02:17;1.27;;;1.00;;
50363;SDS011;36272;59.400;17.982;2024-01-16T14:07:19;2.42;;;1.13;;
50363;SDS011;36272;59.400;17.982;2024-01-16T14:12:21;6.57;;;1.70;;
50363;SDS011;36272;59.400;17.982;2024-01-16T14:17:22;4.95;;;1.40;;
50363;SDS011;36272;59.400;17.982;2024-01-16T14:22:24;3.05;;;1.48;;
50363;SDS011;36272;59.400;17.982;2024-01-16T14:27:25;3.85;;;1.15;;
50363;SDS011;36272;59.400;17.982;2024-01-16T14:32:27;4.57;;;1.20;;
50363;SDS011;36272;59.400;17.982;2024-01-16T14:37:29;1.98;;;1.00;;
50363;SDS011;36272;59.400;17.982;2024-01-16T14:42:30;3.33;;;1.27;;
50363;SDS011;36272;59.400;17.982;2024-01-16T14:52:36;7.07;;;1.90;;
50363;SDS011;36272;59.400;17.982;2024-01-16T14:57:38;8.95;;;1.48;;
50363;SDS011;36272;59.400;17.982;2024-01-16T15:02:43;3.42;;;1.50;;
50363;SDS011;36272;59.400;17.982;2024-01-16T15:07:46;8.27;;;1.92;;
50363;SDS011;36272;59.400;17.982;2024-01-16T15:12:48;7.30;;;1.73;;
50363;SDS011;36272;59.400;17.982;2024-01-16T15:17:50;7.30;;;1.48;;
50363;SDS011;36272;59.400;17.982;2024-01-16T15:22:53;1.63;;;1.15;;
50363;SDS011;36272;59.400;17.982;2024-01-16T15:27:54;2.60;;;1.10;;
50363;SDS011;36272;59.400;17.982;2024-01-16T15:32:56;8.35;;;2.13;;
50363;SDS011;36272;59.400;17.982;2024-01-16T15:37:58;2.88;;;1.48;;
50363;SDS011;36272;59.400;17.982;2024-01-16T15:42:59;0.80;;;0.68;;
50363;SDS011;36272;59.400;17.982;2024-01-16T15:48:01;3.90;;;0.77;;
50363;SDS011;36272;59.400;17.982;2024-01-16T15:58:44;3.47;;;1.58;;
50363;SDS011;36272;59.400;17.982;2024-01-16T16:40:47;8.10;;;2.15;;
50363;SDS011;36272;59.400;17.982;2024-01-16T16:45:49;5.38;;;1.67;;
50363;SDS011;36272;59.400;17.982;2024-01-16T16:56:40;14.95;;;2.28;;
50363;SDS011;36272;59.400;17.982;2024-01-16T17:02:10;9.70;;;1.95;;
50363;SDS011;36272;59.400;17.982;2024-01-16T17:13:34;5.65;;;2.35;;
50363;SDS011;36272;59.400;17.982;2024-01-16T17:18:40;8.00;;;2.72;;
50363;SDS011;36272;59.400;17.982;2024-01-16T17:23:44;9.02;;;2.22;;
50363;SDS011;36272;59.400;17.982;2024-01-16T17:28:46;11.85;;;2.72;;
50363;SDS011;36272;59.400;17.982;2024-01-16T17:33:48;6.43;;;2.17;;
50363;SDS011;36272;59.400;17.982;2024-01-16T17:38:52;5.80;;;2.50;;
50363;SDS011;36272;59.400;17.982;2024-01-16T17:44:00;5.90;;;2.20;;
50363;SDS011;36272;59.400;17.982;2024-01-16T17:49:01;3.88;;;1.83;;
50363;SDS011;36272;59.400;17.982;2024-01-16T17:54:23;7.47;;;2.60;;
50363;SDS011;36272;59.400;17.982;2024-01-16T17:59:25;9.05;;;2.47;;
50363;SDS011;36272;59.400;17.982;2024-01-16T18:04:33;6.15;;;2.28;;
50363;SDS011;36272;59.400;17.982;2024-01-16T18:09:35;3.95;;;2.13;;
50363;SDS011;36272;59.400;17.982;2024-01-16T18:14:56;5.97;;;1.75;;
50363;SDS011;36272;59.400;17.982;2024-01-16T18:19:58;6.18;;;2.47;;
50363;SDS011;36272;59.400;17.982;2024-01-16T18:25:09;5.18;;;2.10;;
50363;SDS011;36272;59.400;17.982;2024-01-16T18:30:11;5.82;;;2.17;;
50363;SDS011;36272;59.400;17.982;2024-01-16T18:35:16;5.80;;;2.05;;
50363;SDS011;36272;59.400;17.982;2024-01-16T18:40:18;10.57;;;2.90;;
50363;SDS011;36272;59.400;17.982;2024-01-16T18:45:21;6.07;;;1.60;;
50363;SDS011;36272;59.400;17.982;2024-01-16T18:50:23;5.30;;;2.35;;
50363;SDS011;36272;59.400;17.982;2024-01-16T18:55:26;9.85;;;2.15;;
50363;SDS011;36272;59.400;17.982;2024-01-16T19:00:27;7.40;;;2.58;;
50363;SDS011;36272;59.400;17.982;2024-01-16T19:05:29;8.43;;;2.83;;
50363;SDS011;36272;59.400;17.982;2024-01-16T19:10:31;7.88;;;2.40;;
50363;SDS011;36272;59.400;17.982;2024-01-16T19:15:33;10.43;;;2.47;;
50363;SDS011;36272;59.400;17.982;2024-01-16T19:20:35;4.38;;;2.35;;
50363;SDS011;36272;59.400;17.982;2024-01-16T19:25:36;6.80;;;2.13;;
50363;SDS011;36272;59.400;17.982;2024-01-16T19:30:38;4.13;;;1.95;;
50363;SDS011;36272;59.400;17.982;2024-01-16T19:35:39;12.00;;;2.40;;
50363;SDS011;36272;59.400;17.982;2024-01-16T19:40:41;8.10;;;2.70;;
50363;SDS011;36272;59.400;17.982;2024-01-16T19:45:43;9.00;;;2.42;;
50363;SDS011;36272;59.400;17.982;2024-01-16T19:50:48;5.47;;;2.50;;
50363;SDS011;36272;59.400;17.982;2024-01-16T19:55:49;5.13;;;2.70;;
50363;SDS011;36272;59.400;17.982;2024-01-16T20:00:52;3.85;;;1.70;;
50363;SDS011;36272;59.400;17.982;2024-01-16T20:05:53;11.48;;;2.05;;
50363;SDS011;36272;59.400;17.982;2024-01-16T20:10:55;10.95;;;3.03;;
50363;SDS011;36272;59.400;17.982;2024-01-16T20:15:58;5.72;;;1.88;;
50363;SDS011;36272;59.400;17.982;2024-01-16T20:21:06;3.67;;;2.13;;
50363;SDS011;36272;59.400;17.982;2024-01-16T20:26:08;6.32;;;2.13;;
50363;SDS011;36272;59.400;17.982;2024-01-16T20:31:10;6.63;;;2.58;;
50363;SDS011;36272;59.400;17.982;2024-01-16T20:36:15;6.03;;;2.40;;
50363;SDS011;36272;59.400;17.982;2024-01-16T20:41:17;8.27;;;2.80;;
50363;SDS011;36272;59.400;17.982;2024-01-16T20:46:19;10.45;;;2.55;;
50363;SDS011;36272;59.400;17.982;2024-01-16T20:51:20;6.15;;;2.60;;
50363;SDS011;36272;59.400;17.982;2024-01-16T20:56:23;8.00;;;2.78;;
50363;SDS011;36272;59.400;17.982;2024-01-16T21:01:26;4.65;;;2.40;;
50363;SDS011;36272;59.400;17.982;2024-01-16T21:06:27;16.38;;;3.67;;
50363;SDS011;36272;59.400;17.982;2024-01-16T21:11:29;6.55;;;2.15;;
50363;SDS011;36272;59.400;17.982;2024-01-16T21:16:31;7.60;;;2.92;;
50363;SDS011;36272;59.400;17.982;2024-01-16T21:21:33;9.32;;;2.30;;
50363;SDS011;36272;59.400;17.982;2024-01-16T21:26:34;7.88;;;3.08;;
50363;SDS011;36272;59.400;17.982;2024-01-16T21:31:41;4.90;;;2.47;;
50363;SDS011;36272;59.400;17.982;2024-01-16T21:36:46;4.38;;;2.28;;
50363;SDS011;36272;59.400;17.982;2024-01-16T21:41:49;7.97;;;2.65;;
50363;SDS011;36272;59.400;17.982;2024-01-16T21:46:51;6.78;;;2.60;;
50363;SDS011;36272;59.400;17.982;2024-01-16T21:51:52;7.03;;;2.25;;
50363;SDS011;36272;59.400;17.982;2024-01-16T21:56:54;7.22;;;1.65;;
50363;SDS011;36272;59.400;17.982;2024-01-16T22:01:59;7.18;;;3.33;;
50363;SDS011;36272;59.400;17.982;2024-01-16T22:07:01;5.72;;;2.58;;
50363;SDS011;36272;59.400;17.982;2024-01-16T22:12:03;3.70;;;2.15;;
50363;SDS011;36272;59.400;17.982;2024-01-16T22:17:14;5.35;;;2.20;;
50363;SDS011;36272;59.400;17.982;2024-01-16T22:22:16;6.47;;;2.28;;
50363;SDS011;36272;59.400;17.982;2024-01-16T22:27:17;4.35;;;1.70;;
50363;SDS011;36272;59.400;17.982;2024-01-16T22:32:19;11.55;;;2.38;;
50363;SDS011;36272;59.400;17.982;2024-01-16T22:37:22;3.38;;;1.63;;
50363;SDS011;36272;59.400;17.982;2024-01-16T22:42:27;9.90;;;2.75;;
50363;SDS011;36272;59.400;17.982;2024-01-16T22:47:28;5.47;;;2.33;;
50363;SDS011;36272;59.400;17.982;2024-01-16T22:52:30;4.30;;;1.63;;
50363;SDS011;36272;59.400;17.982;2024-01-16T22:57:34;3.05;;;1.52;;
50363;SDS011;36272;59.400;17.982;2024-01-16T23:02:35;10.40;;;2.30;;
50363;SDS011;36272;59.400;17.982;2024-01-16T23:07:37;3.88;;;1.33;;
50363;SDS011;36272;59.400;17.982;2024-01-16T23:12:38;7.38;;;1.60;;
50363;SDS011;36272;59.400;17.982;2024-01-16T23:17:41;4.88;;;2.08;;
50363;SDS011;36272;59.400;17.982;2024-01-16T23:22:43;3.90;;;1.38;;
50363;SDS011;36272;59.400;17.982;2024-01-16T23:27:45;2.03;;;1.20;;
50363;SDS011;36272;59.400;17.982;2024-01-16T23:32:50;4.32;;;1.50;;
50363;SDS011;36272;59.400;17.982;2024-01-16T23:37:51;2.92;;;1.40;;
50363;SDS011;36272;59.400;17.982;2024-01-16T23:42:55;3.43;;;1.30;;
50363;SDS011;36272;59.400;17.982;2024-01-16T23:47:58;2.60;;;1.30;;
50363;SDS011;36272;59.400;17.982;2024-01-16T23:53:00;1.77;;;1.23;;
50363;SDS011;36272;59.400;17.982;2024-01-16T23:58:02;3.08;;;1.25;;
